Time;durP1;ratioP1;P1;durP2;ratioP2;P2;SDS_P1;SDS_P2;PMS_P1;PMS_P2;Temp;Humidity;BMP_temperature;BMP_pressure;BME280_temperature;BME280_humidity;BME280_pressure;Samples;Min_cycle;Max_cycle;Signal;HPM_P1;HPM_P2
2021/05/09 00:00:38;;;;;;;1.58;1.30;;;;;;;10.89;59.31;95158.44;5012936;28;20044;-79
2021/05/09 00:03:04;;;;;;;2.70;1.33;;;;;;;10.89;59.73;95164.56;5012451;28;20478;-80
2021/05/09 00:05:30;;;;;;;2.10;1.58;;;;;;;10.81;59.53;95146.69;5014642;28;20025;-80
2021/05/09 00:07:56;;;;;;;1.85;1.45;;;;;;;10.91;59.85;95164.28;5012502;28;20064;-82
2021/05/09 00:10:21;;;;;;;1.55;1.42;;;;;;;10.81;60.06;95157.31;5012810;28;20042;-81
2021/05/09 00:12:47;;;;;;;1.50;1.40;;;;;;;10.83;59.87;95160.47;5012680;28;20408;-82
2021/05/09 00:15:19;;;;;;;1.83;1.50;;;;;;;10.85;59.42;95168.13;5012435;28;20038;-80
2021/05/09 00:17:44;;;;;;;2.60;1.80;;;;;;;10.78;60.39;95151.81;5013466;28;20527;-80
2021/05/09 00:20:11;;;;;;;1.45;1.30;;;;;;;10.80;60.60;95154.94;5012777;28;20062;-80
2021/05/09 00:22:36;;;;;;;1.45;1.35;;;;;;;10.79;60.14;95153.38;5012670;28;20038;-79
2021/05/09 00:25:03;;;;;;;1.92;1.80;;;;;;;10.63;60.78;95135.13;5012614;28;20625;-79
2021/05/09 00:27:28;;;;;;;1.40;1.30;;;;;;;10.68;59.98;95140.34;4994745;28;20034;-80
2021/05/09 00:29:53;;;;;;;1.20;1.10;;;;;;;10.72;59.80;95151.16;5012407;28;20029;-79
2021/05/09 00:32:19;;;;;;;1.60;1.50;;;;;;;10.72;60.61;95153.81;5013980;28;20053;-80
2021/05/09 00:34:44;;;;;;;1.40;1.30;;;;;;;10.71;60.57;95149.59;5012168;28;20030;-80
2021/05/09 00:37:09;;;;;;;3.20;1.90;;;;;;;10.66;60.68;95144.41;5011596;28;20063;-80
2021/05/09 00:39:35;;;;;;;1.88;1.45;;;;;;;10.67;60.75;95146.75;4994450;28;20506;-80
2021/05/09 00:42:05;;;;;;;1.73;1.63;;;;;;;10.62;60.67;95138.91;5012208;28;20056;-79
2021/05/09 00:44:31;;;;;;;1.55;1.23;;;;;;;10.59;60.92;95144.03;5014080;28;20110;-80
2021/05/09 00:46:56;;;;;;;1.80;1.10;;;;;;;10.62;61.16;95143.44;4994441;28;20670;-80
2021/05/09 00:49:23;;;;;;;2.65;1.45;;;;;;;10.51;61.29;95131.47;5012128;28;20041;-81
2021/05/09 00:51:50;;;;;;;1.77;1.30;;;;;;;10.60;61.71;95142.97;5012283;28;20049;-80
2021/05/09 00:54:21;;;;;;;2.85;1.40;;;;;;;10.57;60.91;95136.34;4994203;28;20041;-80
2021/05/09 00:56:48;;;;;;;1.33;1.17;;;;;;;10.60;61.12;95135.75;4996052;28;20034;-80
2021/05/09 00:59:14;;;;;;;1.48;1.38;;;;;;;10.58;61.44;95137.13;5012558;28;20080;-80
2021/05/09 01:01:42;;;;;;;1.42;1.30;;;;;;;10.56;61.10;95139.34;5011566;28;20038;-79
2021/05/09 01:04:11;;;;;;;4.43;1.30;;;;;;;10.54;61.05;95130.84;5011596;28;20042;-79
2021/05/09 01:06:38;;;;;;;3.38;1.38;;;;;;;10.52;61.68;95133.81;4994120;28;20505;-79
2021/05/09 01:09:04;;;;;;;1.45;1.10;;;;;;;10.60;61.27;95132.31;4993957;28;20502;-79
2021/05/09 01:11:30;;;;;;;2.50;1.25;;;;;;;10.59;60.98;95133.38;5013336;28;20026;-79
2021/05/09 01:13:55;;;;;;;2.15;1.25;;;;;;;10.54;61.37;95126.31;5011514;28;20120;-80
2021/05/09 01:16:20;;;;;;;1.23;1.13;;;;;;;10.58;61.54;95131.81;5011727;28;20034;-79
2021/05/09 01:18:46;;;;;;;1.20;1.10;;;;;;;10.50;60.71;95113.94;5010693;28;20184;-80
2021/05/09 01:21:11;;;;;;;2.17;1.13;;;;;;;10.48;60.88;95105.47;5010777;28;20052;-80
2021/05/09 01:23:36;;;;;;;2.35;1.33;;;;;;;10.56;61.54;95128.69;5012830;28;20111;-79
2021/05/09 01:26:02;;;;;;;2.65;1.27;;;;;;;10.57;61.15;95132.91;5010674;28;20128;-80
2021/05/09 01:28:28;;;;;;;2.55;1.33;;;;;;;10.55;61.12;95127.13;5010288;28;20049;-79
2021/05/09 01:30:53;;;;;;;1.55;1.45;;;;;;;10.50;61.33;95124.59;5010586;28;20076;-79
2021/05/09 01:33:19;;;;;;;1.40;1.30;;;;;;;10.41;61.21;95114.66;4993805;28;20073;-80
2021/05/09 01:35:44;;;;;;;1.48;1.10;;;;;;;10.40;61.56;95118.44;4995959;28;20032;-80
2021/05/09 01:38:10;;;;;;;1.27;1.15;;;;;;;10.35;61.68;95113.22;5010914;28;20069;-80
2021/05/09 01:40:35;;;;;;;2.05;1.50;;;;;;;10.38;61.46;95117.94;5010901;28;20046;-77
2021/05/09 01:43:00;;;;;;;1.17;1.08;;;;;;;10.35;61.25;95107.13;5011236;28;20065;-78
2021/05/09 01:45:26;;;;;;;1.33;1.23;;;;;;;10.34;61.31;95110.88;5011282;28;20042;-79
2021/05/09 01:47:51;;;;;;;1.63;1.20;;;;;;;10.28;61.70;95112.84;5010988;28;20105;-80
2021/05/09 01:50:18;;;;;;;1.30;1.13;;;;;;;10.33;61.43;95117.25;5013237;28;20472;-80
2021/05/09 01:52:44;;;;;;;1.88;1.10;;;;;;;10.30;61.26;95109.91;5010985;28;20122;-79
2021/05/09 01:55:13;;;;;;;2.08;1.10;;;;;;;10.31;61.46;95116.78;5011120;28;20053;-80
2021/05/09 01:57:38;;;;;;;1.30;1.10;;;;;;;10.27;60.79;95113.94;4993074;28;20042;-80
2021/05/09 02:00:09;;;;;;;1.27;1.17;;;;;;;10.20;61.33;95102.16;5011205;28;20026;-80
2021/05/09 02:02:35;;;;;;;1.43;1.20;;;;;;;10.26;61.71;95107.06;5012853;28;20014;-80
2021/05/09 02:05:00;;;;;;;3.03;1.35;;;;;;;10.22;60.83;95107.94;5010963;28;20398;-80
2021/05/09 02:07:26;;;;;;;1.65;1.15;;;;;;;10.22;61.10;95103.41;5014547;28;20125;-80
2021/05/09 02:09:51;;;;;;;1.05;1.00;;;;;;;10.24;61.14;95114.56;5014798;28;20042;-81
2021/05/09 02:12:16;;;;;;;1.17;1.00;;;;;;;10.18;60.70;95102.41;5014666;28;20052;-80
2021/05/09 02:14:42;;;;;;;1.65;0.90;;;;;;;10.14;61.49;95106.78;5016665;28;20018;-79
2021/05/09 02:17:07;;;;;;;1.63;0.90;;;;;;;10.14;61.06;95102.25;4996191;28;20050;-79
2021/05/09 02:19:33;;;;;;;0.73;0.70;;;;;;;10.15;61.03;95106.47;5014373;28;20324;-79
2021/05/09 02:21:58;;;;;;;1.83;0.90;;;;;;;10.10;61.43;95101.28;5014598;28;20041;-80
2021/05/09 02:24:25;;;;;;;1.05;0.77;;;;;;;10.08;61.09;95100.00;5014823;28;20042;-81
2021/05/09 02:26:50;;;;;;;0.85;0.85;;;;;;;10.01;60.82;95091.66;5014326;28;20022;-78
2021/05/09 02:29:15;;;;;;;1.83;1.08;;;;;;;10.05;60.97;95103.28;5016451;28;20033;-79
2021/05/09 02:31:41;;;;;;;0.95;0.90;;;;;;;10.04;60.70;95102.50;4997124;28;20034;-79
2021/05/09 02:34:06;;;;;;;1.30;1.05;;;;;;;10.08;60.67;95107.97;4996923;28;20415;-79
2021/05/09 02:36:31;;;;;;;1.33;1.02;;;;;;;10.06;60.60;95107.50;5014587;28;20172;-78
2021/05/09 02:38:57;;;;;;;1.30;0.90;;;;;;;10.07;60.57;95109.06;5012967;28;20369;-79
2021/05/09 02:41:22;;;;;;;0.85;0.68;;;;;;;9.95;60.66;95101.63;5015984;28;20025;-80
2021/05/09 02:43:48;;;;;;;1.05;0.95;;;;;;;9.98;60.54;95105.53;5014286;28;20053;-80
2021/05/09 02:46:14;;;;;;;1.50;0.80;;;;;;;9.95;60.65;95106.94;5014308;28;20041;-80
2021/05/09 02:48:39;;;;;;;1.08;0.98;;;;;;;9.95;60.70;95098.19;4996726;28;20396;-80
2021/05/09 02:51:04;;;;;;;0.90;0.80;;;;;;;10.02;60.54;95109.19;5014231;28;20476;-81
2021/05/09 02:53:30;;;;;;;1.45;0.82;;;;;;;10.01;60.48;95105.75;5016025;28;20574;-80
2021/05/09 02:55:55;;;;;;;0.70;0.70;;;;;;;10.04;60.17;95099.06;5014283;28;20500;-80
2021/05/09 02:58:21;;;;;;;1.45;1.15;;;;;;;10.01;59.66;95100.44;5013689;28;20046;-79
2021/05/09 03:00:46;;;;;;;5.93;1.20;;;;;;;9.98;59.79;95093.06;5014106;28;20034;-80
2021/05/09 03:03:11;;;;;;;1.48;0.82;;;;;;;10.01;59.77;95097.78;5014151;28;20034;-80
2021/05/09 03:05:37;;;;;;;1.90;0.73;;;;;;;9.97;59.81;95091.47;5015591;28;20064;-79
2021/05/09 03:08:03;;;;;;;1.23;0.90;;;;;;;10.08;59.33;95107.97;5013664;28;20077;-79
2021/05/09 03:10:28;;;;;;;0.50;0.50;;;;;;;10.02;59.24;95093.25;5013679;28;20026;-79
2021/05/09 03:12:53;;;;;;;1.50;0.70;;;;;;;10.04;59.33;95099.84;4995991;28;20041;-81
2021/05/09 03:15:19;;;;;;;1.23;0.68;;;;;;;10.10;59.07;95101.28;4996088;28;20109;-80
2021/05/09 03:17:44;;;;;;;0.77;0.70;;;;;;;10.14;58.41;95094.28;5014924;28;20026;-78
2021/05/09 03:20:10;;;;;;;0.95;0.85;;;;;;;10.14;58.53;95086.31;5013442;28;20049;-80
2021/05/09 03:22:35;;;;;;;1.27;0.80;;;;;;;10.20;58.08;95092.28;4995881;28;20050;-79
2021/05/09 03:25:01;;;;;;;0.73;0.73;;;;;;;10.27;58.10;95094.53;5013367;28;20567;-79
2021/05/09 03:27:26;;;;;;;1.98;0.90;;;;;;;10.34;57.60;95101.03;5012946;28;20042;-79
2021/05/09 03:29:51;;;;;;;0.93;0.70;;;;;;;10.37;57.82;95102.28;5013492;28;20026;-80
2021/05/09 03:32:17;;;;;;;2.08;0.90;;;;;;;10.32;56.63;95087.22;5015159;28;20035;-80
2021/05/09 03:34:43;;;;;;;0.98;0.90;;;;;;;10.46;56.78;95097.03;5013291;28;20412;-80
2021/05/09 03:37:08;;;;;;;1.17;0.65;;;;;;;10.48;56.15;95084.19;4995675;28;20069;-79
2021/05/09 03:39:33;;;;;;;0.57;0.57;;;;;;;10.57;55.89;95096.47;5013051;28;20038;-79
2021/05/09 03:41:59;;;;;;;2.35;0.77;;;;;;;10.58;55.83;95089.25;5012897;28;20025;-80
2021/05/09 03:44:24;;;;;;;0.73;0.50;;;;;;;10.62;55.69;95092.91;5014876;28;20046;-80
2021/05/09 03:46:50;;;;;;;0.90;0.80;;;;;;;10.62;55.98;95093.69;5012690;28;20046;-79
2021/05/09 03:49:15;;;;;;;1.67;1.00;;;;;;;10.66;56.31;95097.31;5013051;28;20045;-78
2021/05/09 03:51:40;;;;;;;1.17;0.90;;;;;;;10.71;55.77;95101.72;5012701;28;20369;-79
2021/05/09 03:54:06;;;;;;;1.00;0.70;;;;;;;10.71;55.32;95095.59;4995358;28;20026;-80
2021/05/09 03:56:31;;;;;;;1.40;0.73;;;;;;;10.74;55.45;95098.41;5014726;28;20060;-79
2021/05/09 03:58:56;;;;;;;1.10;0.88;;;;;;;10.73;54.92;95080.13;5012505;28;20030;-79
2021/05/09 04:01:22;;;;;;;1.38;0.70;;;;;;;10.82;55.65;95089.72;5012593;28;20037;-79
2021/05/09 04:03:47;;;;;;;0.73;0.55;;;;;;;10.89;55.04;95090.03;5012363;28;20045;-79
2021/05/09 04:06:12;;;;;;;1.85;0.80;;;;;;;11.04;55.38;95085.41;5012665;28;20045;-79
2021/05/09 04:08:38;;;;;;;1.40;0.60;;;;;;;11.28;54.06;95101.78;5014254;28;20109;-79
2021/05/09 04:11:03;;;;;;;1.15;0.65;;;;;;;11.43;53.92;95090.72;4994932;28;20061;-80
2021/05/09 04:13:29;;;;;;;1.52;0.80;;;;;;;11.70;53.15;95094.19;5012475;28;20128;-80
2021/05/09 04:15:54;;;;;;;1.38;0.70;;;;;;;11.91;53.05;95097.84;5012773;28;20116;-80
2021/05/09 04:18:20;;;;;;;2.40;0.55;;;;;;;12.10;52.57;95094.09;5012194;28;20403;-79
2021/05/09 04:20:46;;;;;;;0.90;0.80;;;;;;;12.27;51.30;95085.31;4996986;28;20365;-80
2021/05/09 04:23:12;;;;;;;2.63;1.13;;;;;;;12.48;50.27;95089.66;4994728;28;20049;-79
2021/05/09 04:25:39;;;;;;;1.83;0.85;;;;;;;12.68;50.18;95085.53;5012195;28;20093;-80
2021/05/09 04:28:04;;;;;;;4.57;1.30;;;;;;;12.86;49.93;95078.28;5011201;28;20038;-79
2021/05/09 04:30:30;;;;;;;1.95;0.60;;;;;;;13.09;48.94;95070.03;5012248;28;20046;-79
2021/05/09 04:33:06;;;;;;;2.40;0.80;;;;;;;13.32;48.25;95083.94;5011919;28;20026;-81
2021/05/09 04:35:33;;;;;;;1.38;0.90;;;;;;;13.44;47.83;95079.47;5014065;28;20376;-80
2021/05/09 04:37:59;;;;;;;0.63;0.50;;;;;;;13.71;47.87;95083.53;5011712;28;20038;-79
2021/05/09 04:40:24;;;;;;;0.68;0.68;;;;;;;13.86;47.28;95079.50;4994244;28;20053;-80
2021/05/09 04:42:50;;;;;;;0.80;0.80;;;;;;;13.98;46.95;95068.88;5011769;28;20616;-80
2021/05/09 04:45:16;;;;;;;0.98;0.70;;;;;;;14.02;45.98;95061.78;4994515;28;20030;-79
2021/05/09 04:47:42;;;;;;;1.30;0.60;;;;;;;14.36;46.03;95075.94;5013721;28;20022;-80
2021/05/09 04:50:09;;;;;;;1.27;0.73;;;;;;;14.56;46.14;95080.50;5011922;28;20073;-81
2021/05/09 04:52:35;;;;;;;0.88;0.55;;;;;;;14.71;45.61;95072.97;5011728;28;20041;-80
2021/05/09 04:55:01;;;;;;;0.80;0.68;;;;;;;14.75;45.04;95071.19;5011966;28;20049;-80
2021/05/09 04:57:26;;;;;;;0.93;0.60;;;;;;;15.00;44.48;95069.34;5011518;28;20121;-79
2021/05/09 04:59:52;;;;;;;1.13;1.02;;;;;;;15.14;44.75;95069.00;5011650;28;20025;-80
2021/05/09 05:02:17;;;;;;;2.47;0.70;;;;;;;15.28;43.96;95064.88;5013544;28;20030;-79
2021/05/09 05:04:43;;;;;;;1.45;0.50;;;;;;;15.38;43.87;95069.03;5011895;28;20381;-80
2021/05/09 05:07:08;;;;;;;0.90;0.70;;;;;;;15.50;43.79;95062.88;5011482;28;20065;-79
2021/05/09 05:09:33;;;;;;;0.80;0.80;;;;;;;15.66;43.40;95065.66;5011403;28;20038;-80
2021/05/09 05:11:59;;;;;;;0.95;0.60;;;;;;;15.67;43.12;95053.84;5011246;28;20084;-81
2021/05/09 05:14:24;;;;;;;0.60;0.60;;;;;;;15.84;43.22;95066.97;5013181;28;20034;-78
2021/05/09 05:16:49;;;;;;;0.93;0.73;;;;;;;16.01;42.83;95076.66;5011273;28;20042;-80
2021/05/09 05:19:15;;;;;;;0.60;0.60;;;;;;;16.03;42.51;95061.03;5011206;28;20041;-80
2021/05/09 05:21:40;;;;;;;1.55;0.77;;;;;;;16.20;42.24;95076.06;5011051;28;20034;-80
2021/05/09 05:24:08;;;;;;;0.75;0.75;;;;;;;16.27;42.11;95068.19;5011303;28;20026;-80
2021/05/09 05:26:33;;;;;;;0.52;0.50;;;;;;;16.27;41.95;95068.97;5013128;28;20591;-80
2021/05/09 05:28:59;;;;;;;1.45;0.60;;;;;;;16.27;41.92;95066.28;5011048;28;20129;-80
2021/05/09 05:31:24;;;;;;;1.13;0.77;;;;;;;16.23;41.69;95059.28;5010724;28;20036;-80
2021/05/09 05:33:49;;;;;;;0.65;0.50;;;;;;;16.07;41.11;95062.69;5010911;28;20061;-81
2021/05/09 05:36:15;;;;;;;1.35;0.77;;;;;;;16.01;41.69;95064.03;5010715;28;20104;-80
2021/05/09 05:38:40;;;;;;;1.48;0.63;;;;;;;16.05;42.21;95058.75;5012745;28;20053;-79
2021/05/09 05:41:06;;;;;;;1.30;0.65;;;;;;;16.11;41.98;95062.75;5010677;28;20041;-80
2021/05/09 05:43:32;;;;;;;1.23;0.60;;;;;;;16.03;41.58;95061.03;5010679;28;20570;-79
2021/05/09 05:45:59;;;;;;;1.98;0.70;;;;;;;15.76;41.93;95003.53;5010645;28;20089;-80
2021/05/09 05:48:25;;;;;;;0.68;0.50;;;;;;;16.22;41.78;95058.47;5010306;28;20045;-80
2021/05/09 05:50:51;;;;;;;0.73;0.50;;;;;;;16.24;41.67;95058.16;5010379;28;20037;-80
2021/05/09 05:53:22;;;;;;;2.42;0.63;;;;;;;16.33;42.31;95048.84;5012654;28;20472;-80
2021/05/09 05:55:48;;;;;;;0.77;0.40;;;;;;;16.23;41.24;95043.97;4993428;28;20100;-77
2021/05/09 05:58:14;;;;;;;1.42;0.63;;;;;;;16.47;41.88;95053.78;5010536;28;20120;-79
2021/05/09 06:00:40;;;;;;;1.48;0.55;;;;;;;16.58;41.31;95048.69;5010903;28;20488;-79
2021/05/09 06:03:06;;;;;;;0.60;0.60;;;;;;;16.64;41.39;95052.72;4993112;28;20395;-78
2021/05/09 06:05:31;;;;;;;0.85;0.55;;;;;;;16.76;41.29;95043.81;5012507;28;20030;-79
2021/05/09 06:07:57;;;;;;;0.93;0.70;;;;;;;16.80;40.68;95050.06;4993082;28;20093;-79
2021/05/09 06:10:22;;;;;;;0.40;0.40;;;;;;;16.99;41.00;95041.31;4993059;28;20066;-80
2021/05/09 06:12:48;;;;;;;1.05;0.50;;;;;;;17.10;41.00;95040.47;4993184;28;20042;-80
2021/05/09 06:15:15;;;;;;;0.68;0.68;;;;;;;17.24;41.02;95047.28;5010749;28;20393;-80
2021/05/09 06:17:41;;;;;;;2.05;0.60;;;;;;;17.35;40.78;95043.75;5012319;28;20400;-79
2021/05/09 06:20:07;;;;;;;0.47;0.47;;;;;;;17.39;40.28;95043.81;5010153;28;20475;-78
2021/05/09 06:22:33;;;;;;;0.75;0.75;;;;;;;17.56;40.66;95048.81;4992394;28;20040;-78
2021/05/09 06:24:58;;;;;;;0.60;0.50;;;;;;;17.55;40.22;95030.31;5009886;28;20042;-78
2021/05/09 06:27:23;;;;;;;1.63;0.52;;;;;;;17.62;39.37;95042.03;5008858;28;20062;-78
2021/05/09 06:29:49;;;;;;;0.60;0.60;;;;;;;17.80;39.82;95036.28;5009940;28;20369;-68
2021/05/09 06:32:14;;;;;;;1.40;0.60;;;;;;;17.89;39.67;95047.63;5011232;28;20049;-76
2021/05/09 06:34:43;;;;;;;0.90;0.63;;;;;;;17.89;39.29;95036.88;5009370;28;20041;-77
2021/05/09 06:37:10;;;;;;;1.35;0.50;;;;;;;18.05;39.11;95047.56;4991523;28;20045;-76
2021/05/09 06:39:36;;;;;;;0.63;0.63;;;;;;;17.71;39.30;95008.75;5009331;28;20076;-77
2021/05/09 06:42:02;;;;;;;2.83;0.60;;;;;;;18.07;39.02;95035.34;5010167;28;20476;-83
2021/05/09 06:44:31;;;;;;;0.77;0.70;;;;;;;18.28;38.45;95044.97;5012745;28;20061;-80
2021/05/09 06:46:56;;;;;;;0.85;0.50;;;;;;;18.38;38.52;95039.00;5009068;28;20034;-67
2021/05/09 06:49:22;;;;;;;1.85;0.60;;;;;;;18.43;38.65;95031.41;4990857;28;20073;-72
2021/05/09 06:51:47;;;;;;;0.60;0.55;;;;;;;18.53;38.68;95029.25;5010618;28;20065;-75
2021/05/09 06:54:16;;;;;;;1.80;0.73;;;;;;;18.67;38.80;95035.69;4996096;28;20068;-80
2021/05/09 06:57:03;;;;;;;0.95;0.60;;;;;;;18.80;39.08;95049.03;5015114;28;20073;-81
2021/05/09 06:59:30;;;;;;;0.85;0.65;;;;;;;18.87;38.29;95032.97;4996889;28;20443;-77
2021/05/09 07:01:56;;;;;;;0.55;0.55;;;;;;;18.95;37.56;95026.59;5012274;28;20488;-69
2021/05/09 07:04:21;;;;;;;0.77;0.63;;;;;;;19.18;37.73;95038.13;4995424;28;20054;-72
2021/05/09 07:06:46;;;;;;;1.75;0.40;;;;;;;19.32;37.77;95036.78;5012578;28;20388;-77
2021/05/09 07:09:12;;;;;;;1.08;0.70;;;;;;;19.20;36.53;95022.38;5012554;28;20030;-74
2021/05/09 07:11:37;;;;;;;0.85;0.50;;;;;;;19.25;35.89;95034.78;5013620;28;20026;-75
2021/05/09 07:14:04;;;;;;;1.27;0.63;;;;;;;19.40;36.78;95041.94;5011896;28;20132;-70
2021/05/09 07:16:31;;;;;;;0.73;0.50;;;;;;;19.48;37.06;95021.22;5011472;28;20050;-66
2021/05/09 07:18:56;;;;;;;1.30;0.60;;;;;;;19.50;36.74;95002.78;5011485;28;20415;-74
2021/05/09 07:21:26;;;;;;;1.17;0.82;;;;;;;19.93;36.73;95047.34;4995111;28;20046;-73
2021/05/09 07:23:52;;;;;;;1.10;0.77;;;;;;;20.00;36.71;95027.75;5012069;28;20073;-75
2021/05/09 07:26:18;;;;;;;1.15;0.60;;;;;;;20.09;36.68;95044.44;5015172;28;20547;-81
2021/05/09 07:28:43;;;;;;;1.95;0.60;;;;;;;20.06;35.78;95026.28;5012568;28;20043;-80
2021/05/09 07:31:09;;;;;;;1.23;0.80;;;;;;;20.37;35.56;95037.81;5013124;28;20041;-77
2021/05/09 07:33:34;;;;;;;1.27;0.70;;;;;;;20.34;35.32;95022.38;5012686;28;20034;-77
2021/05/09 07:36:00;;;;;;;0.63;0.50;;;;;;;20.48;34.74;95036.06;5012407;28;20034;-77
2021/05/09 07:38:25;;;;;;;0.73;0.50;;;;;;;20.62;35.55;95025.41;5013952;28;20029;-76
2021/05/09 07:40:51;;;;;;;0.80;0.70;;;;;;;20.67;34.77;95022.34;5012020;28;20042;-76
2021/05/09 07:43:17;;;;;;;0.55;0.40;;;;;;;20.93;35.39;95029.56;5012905;28;20030;-81
2021/05/09 07:45:44;;;;;;;1.05;0.60;;;;;;;20.99;34.43;95019.97;5013372;28;20674;-82
2021/05/09 07:48:10;;;;;;;0.90;0.60;;;;;;;21.12;33.92;95027.78;5013218;28;20030;-81
2021/05/09 07:50:48;;;;;;;0.40;0.40;;;;;;;21.31;34.10;95024.13;4997872;28;20084;-81
2021/05/09 07:53:14;;;;;;;0.73;0.60;;;;;;;21.39;33.65;95012.94;5013417;28;20088;-82
2021/05/09 07:55:40;;;;;;;0.93;0.73;;;;;;;21.57;34.40;95020.44;4995852;28;20120;-83
2021/05/09 07:58:20;;;;;;;5.18;0.70;;;;;;;21.72;33.57;95020.13;5012879;28;20129;-83
2021/05/09 08:00:46;;;;;;;0.70;0.50;;;;;;;21.80;33.67;95023.66;4995528;28;20488;-82
2021/05/09 08:03:12;;;;;;;1.08;0.68;;;;;;;21.85;33.58;95006.25;4995785;28;20044;-82
2021/05/09 08:05:38;;;;;;;1.65;0.70;;;;;;;21.95;33.41;95013.66;5015056;28;20120;-83
2021/05/09 08:08:06;;;;;;;1.02;0.70;;;;;;;21.91;33.26;95008.25;5012663;28;20084;-81
2021/05/09 08:10:35;;;;;;;0.80;0.70;;;;;;;22.13;34.04;95021.91;4995194;28;20069;-82
2021/05/09 08:13:04;;;;;;;0.60;0.55;;;;;;;22.19;33.15;95004.13;5012376;28;20034;-81
2021/05/09 08:15:30;;;;;;;2.50;0.80;;;;;;;22.27;33.04;95006.50;5012069;28;20061;-84
2021/05/09 08:17:56;;;;;;;0.75;0.50;;;;;;;22.34;32.50;94994.13;5012117;28;20026;-82
2021/05/09 08:20:22;;;;;;;2.10;0.60;;;;;;;22.48;31.87;94996.88;5014042;28;20503;-80
2021/05/09 08:22:47;;;;;;;1.70;0.65;;;;;;;22.39;31.83;94989.09;5012312;28;20046;-85
2021/05/09 08:25:16;;;;;;;0.77;0.50;;;;;;;22.35;32.02;94969.34;5012359;28;20038;-86
2021/05/09 08:27:42;;;;;;;0.95;0.45;;;;;;;22.68;32.12;94994.59;5012393;28;20037;-85
2021/05/09 08:30:08;;;;;;;0.85;0.70;;;;;;;22.82;31.84;94991.88;5012708;28;20025;-84
2021/05/09 08:32:34;;;;;;;0.75;0.60;;;;;;;22.84;32.02;94993.06;5014218;28;20037;-85
2021/05/09 08:35:01;;;;;;;0.98;0.70;;;;;;;22.95;32.38;94990.41;5013188;28;20042;-85
2021/05/09 08:37:26;;;;;;;0.75;0.70;;;;;;;23.05;31.78;94994.28;5012733;28;20034;-84
2021/05/09 08:39:53;;;;;;;0.70;0.63;;;;;;;23.15;31.91;94993.50;5012751;28;20097;-84
2021/05/09 08:42:19;;;;;;;3.30;0.90;;;;;;;23.07;32.06;94986.50;5012024;28;20116;-83
2021/05/09 08:44:45;;;;;;;0.65;0.65;;;;;;;23.21;31.99;94991.94;5013977;28;20518;-82
2021/05/09 08:47:14;;;;;;;1.23;0.60;;;;;;;23.24;31.58;94985.75;5011963;28;20034;-83
2021/05/09 08:49:41;;;;;;;0.82;0.55;;;;;;;23.36;31.65;94984.56;5012038;28;20026;-83
2021/05/09 08:52:08;;;;;;;1.00;0.75;;;;;;;23.31;32.10;94974.09;5011730;28;20069;-82
2021/05/09 08:54:34;;;;;;;2.67;1.17;;;;;;;23.27;32.19;94970.63;5011987;28;20087;-82
2021/05/09 08:57:02;;;;;;;0.80;0.80;;;;;;;23.67;32.25;94971.34;5011705;28;20026;-82
2021/05/09 08:59:28;;;;;;;2.08;0.80;;;;;;;23.74;32.08;94977.53;4995887;28;20034;-76
2021/05/09 09:01:55;;;;;;;1.65;0.85;;;;;;;23.58;31.86;94939.91;5010541;28;20044;-71
2021/05/09 09:04:20;;;;;;;2.08;0.80;;;;;;;23.92;31.80;94979.44;5010726;28;20042;-77
2021/05/09 09:06:46;;;;;;;1.02;0.90;;;;;;;23.94;31.61;94977.84;4992573;28;20038;-81
2021/05/09 09:09:25;;;;;;;1.52;0.80;;;;;;;24.02;31.58;94968.53;5010929;28;20049;-81
2021/05/09 09:11:56;;;;;;;0.93;0.80;;;;;;;24.14;31.58;94970.03;5010800;28;20109;-84
2021/05/09 09:14:25;;;;;;;0.80;0.70;;;;;;;24.22;31.58;94959.91;5011785;28;20100;-71
2021/05/09 09:17:13;;;;;;;1.38;1.00;;;;;;;24.36;31.56;94970.72;5007698;28;20096;-77
2021/05/09 09:20:12;;;;;;;0.98;0.82;;;;;;;24.25;28.08;94953.66;5009512;28;20050;-73
2021/05/09 09:22:56;;;;;;;1.42;0.85;;;;;;;24.25;27.72;94934.63;5000913;28;20049;-75
2021/05/09 09:25:27;;;;;;;0.70;0.70;;;;;;;24.27;28.40;94960.25;5009484;28;20038;-73
2021/05/09 09:27:53;;;;;;;1.10;0.70;;;;;;;24.45;28.71;94951.25;5009206;28;20034;-72
2021/05/09 09:30:22;;;;;;;0.80;0.60;;;;;;;24.49;28.21;94950.06;5009417;28;20116;-70
2021/05/09 09:33:09;;;;;;;1.02;0.80;;;;;;;24.55;27.95;94940.31;4993781;28;20081;-73
2021/05/09 09:35:36;;;;;;;1.10;0.80;;;;;;;24.58;27.85;94941.47;4993567;28;20026;-77
2021/05/09 09:38:26;;;;;;;1.60;0.80;;;;;;;24.46;28.42;94914.72;4991946;28;20034;-81
2021/05/09 09:41:10;;;;;;;1.55;0.50;;;;;;;24.74;28.22;94940.97;5010774;28;20144;-78
2021/05/09 09:43:36;;;;;;;1.23;0.70;;;;;;;24.76;27.18;94938.63;4993103;28;20048;-81
2021/05/09 09:46:03;;;;;;;0.73;0.60;;;;;;;24.64;25.19;94927.03;5010392;28;20046;-78
2021/05/09 09:48:39;;;;;;;1.42;0.60;;;;;;;24.61;25.38;94927.84;4992742;28;20042;-77
2021/05/09 09:51:07;;;;;;;1.25;0.82;;;;;;;24.87;26.27;94929.19;4992294;28;20045;-79
2021/05/09 09:53:42;;;;;;;0.65;0.30;;;;;;;24.77;25.17;94924.63;4994117;28;20088;-77
2021/05/09 09:56:17;;;;;;;0.88;0.70;;;;;;;24.90;25.42;94922.19;5009478;28;20631;-79
2021/05/09 09:58:54;;;;;;;1.70;0.90;;;;;;;24.68;24.89;94897.13;5009027;28;20052;-73
2021/05/09 10:01:25;;;;;;;1.98;0.80;;;;;;;24.80;24.50;94912.94;5009621;28;20038;-76
2021/05/09 10:03:52;;;;;;;0.43;0.37;;;;;;;25.03;24.56;94922.47;5010222;28;20286;-77
2021/05/09 10:06:19;;;;;;;0.68;0.50;;;;;;;24.97;23.00;94915.91;5009606;28;20487;-78
2021/05/09 10:08:45;;;;;;;0.75;0.57;;;;;;;25.04;22.30;94924.03;5011134;28;20029;-78
2021/05/09 10:11:12;;;;;;;0.90;0.77;;;;;;;24.86;21.83;94877.91;5008630;28;20744;-73
2021/05/09 10:13:37;;;;;;;0.80;0.50;;;;;;;25.09;22.04;94880.09;5009113;28;20042;-76
2021/05/09 10:16:03;;;;;;;1.50;0.70;;;;;;;25.18;21.46;94909.53;5008825;28;20542;-75
2021/05/09 10:18:30;;;;;;;1.45;0.60;;;;;;;25.30;21.55;94915.25;5008680;28;20030;-77
2021/05/09 10:20:56;;;;;;;0.95;0.50;;;;;;;25.08;21.07;94903.81;5010145;28;20488;-77
2021/05/09 10:23:22;;;;;;;0.40;0.40;;;;;;;25.20;20.80;94899.03;5011200;28;20109;-79
2021/05/09 10:25:55;;;;;;;0.80;0.60;;;;;;;25.37;21.23;94893.38;4991895;28;20042;-80
2021/05/09 10:28:24;;;;;;;0.47;0.47;;;;;;;25.23;22.61;94869.03;5013250;28;20053;-79
2021/05/09 10:30:52;;;;;;;0.52;0.52;;;;;;;25.48;21.82;94901.44;5013189;28;20030;-79
2021/05/09 10:33:42;;;;;;;0.85;0.50;;;;;;;25.41;21.39;94896.84;5013905;28;20038;-80
2021/05/09 10:36:31;;;;;;;1.10;0.60;;;;;;;25.09;21.28;94889.00;5013745;28;20033;-76
2021/05/09 10:39:17;;;;;;;1.05;0.50;;;;;;;25.06;20.31;94881.66;4995665;28;20065;-78
2021/05/09 10:41:55;;;;;;;1.45;0.73;;;;;;;25.16;20.42;94890.88;5015575;28;20033;-78
2021/05/09 10:44:44;;;;;;;0.80;0.50;;;;;;;25.38;20.62;94884.03;5013999;28;20046;-79
2021/05/09 10:47:32;;;;;;;0.60;0.60;;;;;;;25.45;20.43;94885.16;5013185;28;20105;-79
2021/05/09 10:50:24;;;;;;;0.60;0.60;;;;;;;25.50;20.39;94888.22;5013522;28;20416;-79
2021/05/09 10:52:51;;;;;;;;;;;;;;;25.31;20.86;94886.84;4996505;28;20578;-81
2021/05/09 10:55:35;;;;;;;0.95;0.70;;;;;;;25.51;20.65;94878.84;4996134;28;19917;-79
2021/05/09 10:58:00;;;;;;;0.50;0.50;;;;;;;25.60;20.93;94883.81;5013068;28;20396;-78
2021/05/09 11:00:26;;;;;;;1.45;0.50;;;;;;;25.54;21.40;94856.28;5013403;28;20042;-77
2021/05/09 11:02:51;;;;;;;0.93;0.38;;;;;;;25.45;20.20;94864.16;5013303;28;20360;-79
2021/05/09 11:05:17;;;;;;;0.40;0.40;;;;;;;25.50;20.55;94876.53;5014534;28;20116;-73
2021/05/09 11:07:44;;;;;;;1.27;0.57;;;;;;;25.57;19.81;94871.78;4992798;28;20034;-78
2021/05/09 11:10:31;;;;;;;0.85;0.43;;;;;;;25.72;19.71;94866.94;5012134;28;20381;-76
2021/05/09 11:13:09;;;;;;;0.47;0.47;;;;;;;25.62;19.07;94865.13;5011572;28;20504;-75
2021/05/09 11:15:35;;;;;;;0.85;0.40;;;;;;;25.73;18.54;94851.34;4994066;28;20080;-74
2021/05/09 11:18:12;;;;;;;0.80;0.50;;;;;;;25.50;18.92;94838.41;5011438;28;20113;-73
2021/05/09 11:20:50;;;;;;;0.50;0.50;;;;;;;25.67;18.45;94840.16;5013739;28;20026;-76
2021/05/09 11:23:15;;;;;;;1.00;0.95;;;;;;;25.39;18.41;94817.53;5012074;28;20046;-75
2021/05/09 11:25:41;;;;;;;1.00;0.63;;;;;;;25.69;19.21;94848.66;5011730;28;20634;-75
2021/05/09 11:28:06;;;;;;;0.80;0.43;;;;;;;25.67;18.50;94827.28;5011623;28;20128;-74
2021/05/09 11:30:36;;;;;;;0.95;0.43;;;;;;;25.77;19.44;94835.78;5011045;28;20088;-74
2021/05/09 11:33:01;;;;;;;1.83;0.40;;;;;;;25.66;19.05;94819.53;5011098;28;20435;-75
2021/05/09 11:35:40;;;;;;;0.73;0.50;;;;;;;25.88;18.93;94834.44;5013273;28;20022;-74